createdAt,value
2019-03-17T00:00:48.539Z,0
2019-03-17T00:01:59.816Z,0
2019-03-17T00:02:48.482Z,0
2019-03-17T00:03:48.212Z,0
2019-03-17T00:04:48.188Z,0
2019-03-17T00:05:48.206Z,0
2019-03-17T00:06:48.400Z,0
2019-03-17T00:07:48.141Z,0
2019-03-17T00:08:48.390Z,0
2019-03-17T00:09:48.160Z,0
2019-03-17T00:10:48.347Z,0
2019-03-17T00:11:48.089Z,0
2019-03-17T00:12:48.322Z,0
2019-03-17T00:13:48.110Z,0
2019-03-17T00:14:48.385Z,0
2019-03-17T00:15:48.274Z,0
2019-03-17T00:16:48.262Z,0
2019-03-17T00:17:51.281Z,0
2019-03-17T00:18:48.332Z,0
2019-03-17T00:19:48.220Z,0
2019-03-17T00:20:48.201Z,0
2019-03-17T00:21:48.196Z,0
2019-03-17T00:22:47.924Z,0
2019-03-17T00:23:48.149Z,0
2019-03-17T00:24:47.896Z,0
2019-03-17T00:25:48.124Z,0
2019-03-17T00:26:48.107Z,0
2019-03-17T00:27:48.096Z,0
2019-03-17T00:28:49.168Z,0
2019-03-17T00:29:48.125Z,0
2019-03-17T00:30:48.055Z,0
2019-03-17T00:31:47.548Z,0
2019-03-17T00:32:47.774Z,0
2019-03-17T00:33:48.040Z,0
2019-03-17T00:34:55.844Z,0
2019-03-17T00:35:47.484Z,0
2019-03-17T00:36:47.964Z,0
2019-03-17T00:37:47.954Z,0
2019-03-17T00:38:47.940Z,0
2019-03-17T00:39:48.960Z,0
2019-03-17T00:40:47.908Z,0
2019-03-17T00:41:47.929Z,0
2019-03-17T00:42:47.881Z,0
2019-03-17T00:43:47.879Z,0
2019-03-17T00:44:47.607Z,0
2019-03-17T00:45:47.830Z,0
2019-03-17T00:46:47.825Z,0
2019-03-17T00:47:47.814Z,0
2019-03-17T00:48:47.779Z,0
2019-03-17T00:49:47.554Z,0
2019-03-17T00:50:48.922Z,0
2019-03-17T00:51:47.772Z,0
2019-03-17T00:52:47.751Z,0
2019-03-17T00:53:47.737Z,0
2019-03-17T00:54:47.716Z,0
2019-03-17T00:55:47.679Z,0
2019-03-17T00:56:47.668Z,0
2019-03-17T00:57:47.659Z,0
2019-03-17T00:58:47.640Z,0
2019-03-17T00:59:47.621Z,0
2019-03-17T01:00:47.607Z,0
2019-03-17T01:01:47.594Z,0
2019-03-17T01:02:47.577Z,0
2019-03-17T01:03:47.567Z,0
2019-03-17T01:04:58.418Z,0
2019-03-17T01:05:47.293Z,0
2019-03-17T01:06:47.525Z,0
2019-03-17T01:07:47.344Z,0
2019-03-17T01:08:47.492Z,0
2019-03-17T01:09:47.475Z,0
2019-03-17T01:10:47.471Z,0
2019-03-17T01:11:47.464Z,0
2019-03-17T01:12:49.649Z,0
2019-03-17T01:13:47.163Z,0
2019-03-17T01:14:47.156Z,0
2019-03-17T01:15:47.389Z,0
2019-03-17T01:16:47.380Z,0
2019-03-17T01:17:47.356Z,0
2019-03-17T01:18:47.104Z,0
2019-03-17T01:19:47.324Z,0
2019-03-17T01:20:47.316Z,0
2019-03-17T01:21:47.059Z,0
2019-03-17T01:22:47.302Z,0
2019-03-17T01:23:47.025Z,0
2019-03-17T01:24:47.249Z,0
2019-03-17T01:25:47.253Z,0
2019-03-17T01:26:47.231Z,0
2019-03-17T01:27:46.959Z,0
2019-03-17T01:28:47.200Z,0
2019-03-17T01:29:46.937Z,0
2019-03-17T01:30:47.165Z,0
2019-03-17T01:31:47.159Z,0
2019-03-17T01:32:47.134Z,0
2019-03-17T01:33:47.117Z,0
2019-03-17T01:34:46.859Z,0
2019-03-17T01:35:47.116Z,0
2019-03-17T01:36:46.830Z,0
2019-03-17T01:37:47.065Z,0
2019-03-17T01:38:47.048Z,0
2019-03-17T01:39:47.032Z,0
2019-03-17T01:40:47.020Z,0
2019-03-17T01:41:46.757Z,0
2019-03-17T01:42:47.016Z,0
2019-03-17T01:43:46.979Z,0
2019-03-17T01:44:46.466Z,0
2019-03-17T01:45:46.963Z,0
2019-03-17T01:46:46.958Z,0
2019-03-17T01:47:46.922Z,0
2019-03-17T01:48:46.659Z,0
2019-03-17T01:49:46.889Z,0
2019-03-17T01:50:46.881Z,0
2019-03-17T01:51:46.674Z,0
2019-03-17T01:52:46.850Z,0
2019-03-17T01:53:46.838Z,0
2019-03-17T01:54:46.819Z,0
2019-03-17T01:55:46.804Z,0
2019-03-17T01:56:46.294Z,0
2019-03-17T01:57:46.772Z,0
2019-03-17T01:58:46.512Z,0
2019-03-17T01:59:46.781Z,0
2019-03-17T02:00:46.482Z,0
2019-03-17T02:01:46.718Z,0
2019-03-17T02:02:46.725Z,0
2019-03-17T02:03:46.443Z,0
2019-03-17T02:04:46.685Z,0
2019-03-17T02:05:46.654Z,0
2019-03-17T02:06:46.644Z,0
2019-03-17T02:07:46.626Z,0
2019-03-17T02:08:46.611Z,0
2019-03-17T02:09:46.365Z,0
2019-03-17T02:10:46.600Z,0
2019-03-17T02:11:46.320Z,0
2019-03-17T02:12:46.564Z,0
2019-03-17T02:13:46.059Z,0
2019-03-17T02:14:46.528Z,0
2019-03-17T02:15:46.508Z,0
2019-03-17T02:16:46.499Z,0
2019-03-17T02:17:46.261Z,0
2019-03-17T02:18:46.474Z,0
2019-03-17T02:19:46.445Z,0
2019-03-17T02:20:46.193Z,0
2019-03-17T02:21:46.175Z,0
2019-03-17T02:22:46.427Z,0
2019-03-17T02:23:46.145Z,0
2019-03-17T02:24:46.382Z,0
2019-03-17T02:25:46.378Z,0
2019-03-17T02:26:46.365Z,0
2019-03-17T02:27:46.337Z,0
2019-03-17T02:28:46.324Z,0
2019-03-17T02:29:46.346Z,0
2019-03-17T02:30:45.810Z,0
2019-03-17T02:31:46.300Z,0
2019-03-17T02:32:46.270Z,0
2019-03-17T02:33:45.776Z,0
2019-03-17T02:34:46.256Z,0
2019-03-17T02:35:49.262Z,0
2019-03-17T02:36:46.230Z,0
2019-03-17T02:37:46.226Z,0
2019-03-17T02:38:46.227Z,0
2019-03-17T02:39:46.194Z,0
2019-03-17T02:40:46.159Z,0
2019-03-17T02:41:46.254Z,0
2019-03-17T02:42:46.158Z,0
2019-03-17T02:43:45.882Z,0
2019-03-17T02:44:46.103Z,0
2019-03-17T02:45:45.860Z,0
2019-03-17T02:46:46.087Z,0
2019-03-17T02:47:46.063Z,0
2019-03-17T02:48:46.046Z,0
2019-03-17T02:49:46.050Z,0
2019-03-17T02:50:46.035Z,0
2019-03-17T02:51:46.003Z,0
2019-03-17T02:52:46.000Z,0
2019-03-17T02:53:45.978Z,0
2019-03-17T02:54:45.967Z,0
2019-03-17T02:55:45.739Z,0
2019-03-17T02:56:45.693Z,0
2019-03-17T02:57:45.927Z,0
2019-03-17T02:58:45.902Z,0
2019-03-17T02:59:45.910Z,0
2019-03-17T03:00:45.678Z,0
2019-03-17T03:01:45.865Z,0
2019-03-17T03:02:45.690Z,0
2019-03-17T03:03:45.840Z,0
2019-03-17T03:04:45.850Z,0
2019-03-17T03:06:01.235Z,0
2019-03-17T03:06:45.792Z,0
2019-03-17T03:07:45.296Z,0
2019-03-17T03:08:45.758Z,0
2019-03-17T03:09:45.766Z,0
2019-03-17T03:10:45.507Z,0
2019-03-17T03:11:45.732Z,0
2019-03-17T03:12:45.762Z,0
2019-03-17T03:13:45.227Z,0
2019-03-17T03:14:45.680Z,0
2019-03-17T03:15:45.653Z,0
2019-03-17T03:16:45.673Z,0
2019-03-17T03:17:45.394Z,0
2019-03-17T03:18:45.618Z,0
2019-03-17T03:19:45.601Z,0
2019-03-17T03:20:45.587Z,0
2019-03-17T03:21:45.325Z,0
2019-03-17T03:22:45.584Z,0
2019-03-17T03:23:45.548Z,0
2019-03-17T03:24:45.281Z,0
2019-03-17T03:25:45.027Z,0
2019-03-17T03:26:45.511Z,0
2019-03-17T03:27:45.519Z,0
2019-03-17T03:28:45.274Z,0
2019-03-17T03:29:45.628Z,0
2019-03-17T03:30:45.261Z,0
2019-03-17T03:31:45.586Z,0
2019-03-17T03:32:45.500Z,0
2019-03-17T03:33:45.235Z,0
2019-03-17T03:34:45.154Z,0
2019-03-17T03:35:45.374Z,0
2019-03-17T03:36:45.368Z,0
2019-03-17T03:37:45.356Z,0
2019-03-17T03:38:45.344Z,0
2019-03-17T03:39:45.334Z,0
2019-03-17T03:40:45.308Z,0
2019-03-17T03:41:45.289Z,0
2019-03-17T03:42:45.296Z,0
2019-03-17T03:43:45.256Z,0
2019-03-17T03:44:45.019Z,0
2019-03-17T03:45:45.012Z,0
2019-03-17T03:46:45.239Z,0
2019-03-17T03:47:45.253Z,0
2019-03-17T03:48:45.209Z,0
2019-03-17T03:49:45.203Z,0
2019-03-17T03:50:44.926Z,0
2019-03-17T03:51:45.153Z,0
2019-03-17T03:52:45.167Z,0
2019-03-17T03:53:44.891Z,0
2019-03-17T03:54:45.108Z,0
2019-03-17T03:55:48.940Z,0
2019-03-17T03:56:44.841Z,0
2019-03-17T03:57:45.090Z,0
2019-03-17T03:58:45.100Z,0
2019-03-17T03:59:45.035Z,0
2019-03-17T04:00:45.064Z,0
2019-03-17T04:01:45.095Z,0
2019-03-17T04:02:44.991Z,0
2019-03-17T04:03:44.730Z,0
2019-03-17T04:04:45.116Z,0
2019-03-17T04:05:44.959Z,0
2019-03-17T04:06:44.935Z,0
2019-03-17T04:07:44.669Z,0
2019-03-17T04:08:44.670Z,0
2019-03-17T04:09:44.912Z,0
2019-03-17T04:10:44.876Z,0
2019-03-17T04:11:44.910Z,0
2019-03-17T04:12:44.850Z,0
2019-03-17T04:13:44.595Z,0
2019-03-17T04:14:44.631Z,0
2019-03-17T04:15:44.879Z,0
2019-03-17T04:16:44.820Z,0
2019-03-17T04:17:44.534Z,0
2019-03-17T04:18:44.771Z,0
2019-03-17T04:19:44.772Z,0
2019-03-17T04:20:44.760Z,0
2019-03-17T04:21:44.502Z,0
2019-03-17T04:22:44.728Z,0
2019-03-17T04:23:44.708Z,0
2019-03-17T04:24:44.810Z,0
2019-03-17T04:25:44.676Z,0
2019-03-17T04:26:44.481Z,0
2019-03-17T04:27:44.731Z,0
2019-03-17T04:28:44.623Z,0
2019-03-17T04:29:44.637Z,0
2019-03-17T04:30:44.609Z,0
2019-03-17T04:31:44.349Z,0
2019-03-17T04:32:44.332Z,0
2019-03-17T04:33:44.550Z,0
2019-03-17T04:34:44.541Z,0
2019-03-17T04:35:44.277Z,0
2019-03-17T04:36:49.895Z,0
2019-03-17T04:37:44.546Z,0
2019-03-17T04:38:46.342Z,0
2019-03-17T04:39:44.495Z,0
2019-03-17T04:40:44.448Z,0
2019-03-17T04:41:44.438Z,0
2019-03-17T04:42:44.418Z,0
2019-03-17T04:43:44.427Z,0
2019-03-17T04:44:44.397Z,0
2019-03-17T04:45:44.381Z,0
2019-03-17T04:46:44.384Z,0
2019-03-17T04:47:44.358Z,0
2019-03-17T04:48:44.531Z,0
2019-03-17T04:49:44.330Z,0
2019-03-17T04:50:44.310Z,0
2019-03-17T04:51:44.294Z,0
2019-03-17T04:52:44.284Z,0
2019-03-17T04:53:44.276Z,0
2019-03-17T04:54:44.272Z,0
2019-03-17T04:55:43.997Z,0
2019-03-17T04:56:44.230Z,0
2019-03-17T04:57:44.219Z,0
2019-03-17T04:58:43.973Z,0
2019-03-17T04:59:44.194Z,0
2019-03-17T05:00:44.170Z,0
2019-03-17T05:01:44.150Z,0
2019-03-17T05:02:44.157Z,0
2019-03-17T05:03:44.128Z,0
2019-03-17T05:04:44.216Z,0
2019-03-17T05:05:44.109Z,0
2019-03-17T05:06:56.480Z,0
2019-03-17T05:07:43.823Z,0
2019-03-17T05:08:44.052Z,0
2019-03-17T05:09:43.800Z,0
2019-03-17T05:10:44.038Z,0
2019-03-17T05:11:43.804Z,0
2019-03-17T05:12:44.023Z,0
2019-03-17T05:13:44.009Z,0
2019-03-17T05:14:44.071Z,0
2019-03-17T05:15:43.983Z,0
2019-03-17T05:16:45.322Z,0
2019-03-17T05:17:43.454Z,0
2019-03-17T05:18:43.913Z,5
2019-03-17T05:19:43.658Z,5
2019-03-17T05:20:43.638Z,5
2019-03-17T05:21:43.873Z,5
2019-03-17T05:22:43.869Z,5
2019-03-17T05:23:43.871Z,5
2019-03-17T05:24:43.832Z,5
2019-03-17T05:25:43.830Z,5
2019-03-17T05:26:43.889Z,5
2019-03-17T05:27:43.881Z,10
2019-03-17T05:28:43.783Z,10
2019-03-17T05:29:43.764Z,10
2019-03-17T05:30:43.516Z,10
2019-03-17T05:31:43.249Z,10
2019-03-17T05:32:43.730Z,10
2019-03-17T05:33:43.468Z,15
2019-03-17T05:34:43.466Z,15
2019-03-17T05:35:43.702Z,15
2019-03-17T05:36:43.666Z,15
2019-03-17T05:37:43.699Z,15
2019-03-17T05:38:43.390Z,20
2019-03-17T05:39:43.409Z,20
2019-03-17T05:40:43.608Z,20
2019-03-17T05:41:43.591Z,20
2019-03-17T05:42:45.636Z,20
2019-03-17T05:43:43.577Z,20
2019-03-17T05:44:43.319Z,25
2019-03-17T05:45:43.304Z,25
2019-03-17T05:46:43.533Z,25
2019-03-17T05:47:43.278Z,25
2019-03-17T05:48:43.544Z,25
2019-03-17T05:49:43.245Z,25
2019-03-17T05:50:43.225Z,30
2019-03-17T05:51:43.459Z,30
2019-03-17T05:52:43.445Z,30
2019-03-17T05:53:45.173Z,30
2019-03-17T05:54:43.430Z,35
2019-03-17T05:55:43.155Z,35
2019-03-17T05:56:43.441Z,35
2019-03-17T05:57:43.379Z,35
2019-03-17T05:58:42.867Z,35
2019-03-17T05:59:43.355Z,40
2019-03-17T06:00:43.330Z,40
2019-03-17T06:01:43.321Z,40
2019-03-17T06:02:43.311Z,40
2019-03-17T06:03:43.045Z,45
2019-03-17T06:04:43.306Z,45
2019-03-17T06:05:43.261Z,45
2019-03-17T06:06:43.251Z,45
2019-03-17T06:07:43.015Z,45
2019-03-17T06:08:43.110Z,45
2019-03-17T06:09:43.216Z,50
2019-03-17T06:10:42.962Z,50
2019-03-17T06:11:43.186Z,50
2019-03-17T06:12:43.199Z,50
2019-03-17T06:13:43.153Z,55
2019-03-17T06:14:42.922Z,55
2019-03-17T06:15:43.135Z,55
2019-03-17T06:16:42.866Z,55
2019-03-17T06:17:43.106Z,60
2019-03-17T06:18:43.090Z,60
2019-03-17T06:19:43.068Z,60
2019-03-17T06:20:42.839Z,60
2019-03-17T06:21:42.804Z,65
2019-03-17T06:22:43.069Z,65
2019-03-17T06:23:43.014Z,65
2019-03-17T06:24:42.761Z,70
2019-03-17T06:25:43.068Z,65
2019-03-17T06:26:42.980Z,65
2019-03-17T06:27:42.716Z,65
2019-03-17T06:28:42.965Z,65
2019-03-17T06:29:42.948Z,65
2019-03-17T06:30:42.684Z,65
2019-03-17T06:31:42.919Z,70
2019-03-17T06:32:42.900Z,70
2019-03-17T06:33:42.879Z,75
2019-03-17T06:34:42.621Z,80
2019-03-17T06:35:42.856Z,80
2019-03-17T06:36:42.868Z,80
2019-03-17T06:37:42.827Z,80
2019-03-17T06:38:42.818Z,75
2019-03-17T06:39:42.574Z,75
2019-03-17T06:40:42.792Z,70
2019-03-17T06:41:42.536Z,70
2019-03-17T06:42:42.769Z,70
2019-03-17T06:43:42.750Z,70
2019-03-17T06:44:42.799Z,70
2019-03-17T06:45:42.496Z,70
2019-03-17T06:46:42.475Z,70
2019-03-17T06:47:42.699Z,70
2019-03-17T06:48:42.684Z,70
2019-03-17T06:49:42.676Z,70
2019-03-17T06:50:42.661Z,75
2019-03-17T06:51:42.653Z,75
2019-03-17T06:52:42.417Z,75
2019-03-17T06:53:42.398Z,75
2019-03-17T06:54:42.644Z,75
2019-03-17T06:55:42.633Z,75
2019-03-17T06:56:42.341Z,80
2019-03-17T06:57:42.341Z,80
2019-03-17T06:58:42.320Z,80
2019-03-17T06:59:42.561Z,80
2019-03-17T07:00:42.533Z,80
2019-03-17T07:01:42.530Z,80
2019-03-17T07:02:42.260Z,80
2019-03-17T07:03:42.489Z,80
2019-03-17T07:04:42.233Z,80
2019-03-17T07:05:42.467Z,80
2019-03-17T07:06:42.462Z,80
2019-03-17T07:07:53.295Z,80
2019-03-17T07:08:42.441Z,75
2019-03-17T07:09:42.418Z,80
2019-03-17T07:10:42.414Z,80
2019-03-17T07:11:42.391Z,80
2019-03-17T07:12:42.379Z,80
2019-03-17T07:13:42.409Z,80
2019-03-17T07:14:42.427Z,85
2019-03-17T07:15:42.095Z,85
2019-03-17T07:16:42.334Z,85
2019-03-17T07:17:42.313Z,85
2019-03-17T07:18:42.378Z,85
2019-03-17T07:19:42.296Z,85
2019-03-17T07:20:42.271Z,85
2019-03-17T07:21:42.276Z,85
2019-03-17T07:22:42.245Z,85
2019-03-17T07:23:43.679Z,90
2019-03-17T07:24:42.222Z,90
2019-03-17T07:25:41.967Z,90
2019-03-17T07:26:42.195Z,90
2019-03-17T07:27:42.188Z,90
2019-03-17T07:28:42.166Z,90
2019-03-17T07:29:42.203Z,90
2019-03-17T07:30:42.149Z,90
2019-03-17T07:31:41.894Z,90
2019-03-17T07:32:41.887Z,90
2019-03-17T07:33:42.110Z,90
2019-03-17T07:34:41.850Z,90
2019-03-17T07:35:42.087Z,90
2019-03-17T07:36:41.818Z,95
2019-03-17T07:37:41.807Z,95
2019-03-17T07:38:41.821Z,95
2019-03-17T07:39:42.047Z,90
2019-03-17T07:40:42.037Z,95
2019-03-17T07:41:41.758Z,95
2019-03-17T07:42:42.012Z,95
2019-03-17T07:43:42.146Z,95
2019-03-17T07:44:41.968Z,95
2019-03-17T07:45:41.963Z,95
2019-03-17T07:46:41.938Z,95
2019-03-17T07:47:42.695Z,95
2019-03-17T07:48:41.960Z,100
2019-03-17T07:49:41.905Z,100
2019-03-17T07:50:41.892Z,100
2019-03-17T07:51:41.874Z,100
2019-03-17T07:52:41.868Z,100
2019-03-17T07:53:41.610Z,100
2019-03-17T07:54:44.559Z,100
2019-03-17T07:55:41.902Z,100
2019-03-17T07:56:41.822Z,100
2019-03-17T07:57:41.807Z,100
2019-03-17T07:58:41.786Z,100
2019-03-17T07:59:41.791Z,100
2019-03-17T08:00:42.071Z,100
2019-03-17T08:01:41.828Z,100
2019-03-17T08:02:41.742Z,100
2019-03-17T08:03:41.485Z,100
2019-03-17T08:04:52.926Z,100
2019-03-17T08:05:41.709Z,100
2019-03-17T08:06:41.710Z,100
2019-03-17T08:07:41.708Z,100
2019-03-17T08:08:42.173Z,100
2019-03-17T08:09:41.521Z,100
2019-03-17T08:10:41.671Z,100
2019-03-17T08:11:41.633Z,100
2019-03-17T08:12:41.624Z,100
2019-03-17T08:13:41.605Z,100
2019-03-17T08:14:41.605Z,100
2019-03-17T08:15:41.579Z,100
2019-03-17T08:16:41.577Z,100
2019-03-17T08:17:41.562Z,100
2019-03-17T08:18:41.312Z,100
2019-03-17T08:19:41.684Z,100
2019-03-17T08:20:41.553Z,100
2019-03-17T08:21:43.246Z,100
2019-03-17T08:22:41.507Z,100
2019-03-17T08:23:41.251Z,95
2019-03-17T08:24:41.391Z,100
2019-03-17T08:25:41.468Z,105
2019-03-17T08:26:41.281Z,105
2019-03-17T08:27:40.959Z,105
2019-03-17T08:28:41.434Z,105
2019-03-17T08:29:41.427Z,105
2019-03-17T08:30:54.847Z,100
2019-03-17T08:31:41.398Z,100
2019-03-17T08:32:43.735Z,105
2019-03-17T08:33:41.373Z,110
2019-03-17T08:34:41.376Z,110
2019-03-17T08:35:41.100Z,110
2019-03-17T08:36:41.089Z,110
2019-03-17T08:37:40.841Z,110
2019-03-17T08:38:41.074Z,110
2019-03-17T08:39:41.059Z,105
2019-03-17T08:40:41.293Z,105
2019-03-17T08:41:42.547Z,110
2019-03-17T08:42:41.038Z,105
2019-03-17T08:43:53.401Z,110
2019-03-17T08:44:41.258Z,110
2019-03-17T08:45:41.253Z,110
2019-03-17T08:46:41.227Z,110
2019-03-17T08:47:41.219Z,110
2019-03-17T08:48:40.715Z,110
2019-03-17T08:49:41.209Z,105
2019-03-17T08:50:41.197Z,110
2019-03-17T08:51:41.344Z,110
2019-03-17T08:52:43.639Z,110
2019-03-17T08:53:41.153Z,110
2019-03-17T08:54:40.889Z,110
2019-03-17T08:55:40.916Z,110
2019-03-17T08:56:41.144Z,110
2019-03-17T08:57:41.111Z,110
2019-03-17T08:58:40.863Z,110
2019-03-17T08:59:41.092Z,110
2019-03-17T09:00:41.101Z,110
2019-03-17T09:01:40.829Z,110
2019-03-17T09:02:41.065Z,110
2019-03-17T09:03:41.040Z,110
2019-03-17T09:04:41.036Z,110
2019-03-17T09:05:40.784Z,110
2019-03-17T09:06:40.759Z,110
2019-03-17T09:07:40.781Z,110
2019-03-17T09:08:44.922Z,110
2019-03-17T09:09:40.504Z,110
2019-03-17T09:10:40.973Z,105
2019-03-17T09:11:40.515Z,105
2019-03-17T09:12:40.709Z,105
2019-03-17T09:13:40.942Z,110
2019-03-17T09:14:40.683Z,105
2019-03-17T09:15:40.686Z,110
2019-03-17T09:16:40.686Z,105
2019-03-17T09:17:40.893Z,105
2019-03-17T09:18:40.893Z,105
2019-03-17T09:19:41.020Z,105
2019-03-17T09:20:40.858Z,100
2019-03-17T09:21:40.614Z,105
2019-03-17T09:22:40.598Z,105
2019-03-17T09:23:42.597Z,105
2019-03-17T09:24:40.835Z,100
2019-03-17T09:25:40.808Z,105
2019-03-17T09:26:40.804Z,110
2019-03-17T09:27:40.792Z,110
2019-03-17T09:28:40.798Z,115
2019-03-17T09:29:40.762Z,115
2019-03-17T09:30:40.519Z,115
2019-03-17T09:31:40.752Z,110
2019-03-17T09:32:40.752Z,110
2019-03-17T09:33:40.728Z,110
2019-03-17T09:34:40.467Z,110
2019-03-17T09:35:40.702Z,110
2019-03-17T09:36:41.795Z,110
2019-03-17T09:37:40.684Z,110
2019-03-17T09:38:51.817Z,115
2019-03-17T09:39:40.659Z,115
2019-03-17T09:40:40.166Z,115
2019-03-17T09:41:40.666Z,115
2019-03-17T09:42:40.640Z,115
2019-03-17T09:43:40.641Z,115
2019-03-17T09:44:40.641Z,120
2019-03-17T09:45:40.604Z,120
2019-03-17T09:46:40.354Z,120
2019-03-17T09:47:43.519Z,120
2019-03-17T09:48:40.656Z,120
2019-03-17T09:49:40.559Z,125
2019-03-17T09:50:40.306Z,125
2019-03-17T09:51:40.625Z,125
2019-03-17T09:52:39.798Z,130
2019-03-17T09:53:40.582Z,130
2019-03-17T09:54:40.515Z,130
2019-03-17T09:55:40.513Z,135
2019-03-17T09:56:40.505Z,135
2019-03-17T09:57:40.497Z,140
2019-03-17T09:58:40.478Z,145
2019-03-17T09:59:40.469Z,145
2019-03-17T10:00:40.461Z,150
2019-03-17T10:01:40.454Z,145
2019-03-17T10:02:40.434Z,145
2019-03-17T10:03:40.438Z,145
2019-03-17T10:04:40.419Z,140
2019-03-17T10:05:40.417Z,135
2019-03-17T10:06:40.468Z,130
2019-03-17T10:07:40.399Z,130
2019-03-17T10:08:40.130Z,130
2019-03-17T10:09:40.123Z,125
2019-03-17T10:10:40.367Z,125
2019-03-17T10:11:40.365Z,120
2019-03-17T10:12:40.111Z,120
2019-03-17T10:13:40.331Z,120
2019-03-17T10:14:40.354Z,120
2019-03-17T10:15:40.322Z,120
2019-03-17T10:16:40.065Z,120
2019-03-17T10:17:40.296Z,120
2019-03-17T10:18:40.294Z,125
2019-03-17T10:19:40.274Z,125
2019-03-17T10:20:40.268Z,130
2019-03-17T10:21:40.262Z,130
2019-03-17T10:22:42.282Z,135
2019-03-17T10:23:39.997Z,140
2019-03-17T10:24:39.990Z,140
2019-03-17T10:25:40.224Z,140
2019-03-17T10:26:40.062Z,140
2019-03-17T10:27:40.200Z,140
2019-03-17T10:28:42.029Z,140
2019-03-17T10:29:40.188Z,140
2019-03-17T10:30:39.948Z,140
2019-03-17T10:31:39.930Z,140
2019-03-17T10:32:40.178Z,140
2019-03-17T10:33:40.157Z,135
2019-03-17T10:34:40.149Z,130
2019-03-17T10:35:40.135Z,130
2019-03-17T10:36:40.127Z,125
2019-03-17T10:37:39.870Z,120
2019-03-17T10:38:40.111Z,125
2019-03-17T10:39:40.100Z,125
2019-03-17T10:40:40.100Z,125
2019-03-17T10:41:39.591Z,125
2019-03-17T10:42:41.454Z,120
2019-03-17T10:43:40.059Z,120
2019-03-17T10:44:40.051Z,120
2019-03-17T10:45:40.041Z,125
2019-03-17T10:46:40.032Z,125
2019-03-17T10:47:40.024Z,125
2019-03-17T10:48:40.024Z,125
2019-03-17T10:49:40.010Z,125
2019-03-17T10:50:51.975Z,125
2019-03-17T10:51:39.999Z,125
2019-03-17T10:52:39.982Z,125
2019-03-17T10:53:39.979Z,125
2019-03-17T10:54:39.969Z,125
2019-03-17T10:55:39.967Z,125
2019-03-17T10:56:39.947Z,125
2019-03-17T10:57:39.934Z,125
2019-03-17T10:58:39.695Z,125
2019-03-17T10:59:39.920Z,130
2019-03-17T11:00:39.906Z,130
2019-03-17T11:01:39.667Z,125
2019-03-17T11:02:39.890Z,125
2019-03-17T11:03:39.890Z,130
2019-03-17T11:04:39.881Z,130
2019-03-17T11:05:40.130Z,130
2019-03-17T11:06:39.630Z,130
2019-03-17T11:07:39.602Z,135
2019-03-17T11:08:39.597Z,135
2019-03-17T11:09:39.831Z,135
2019-03-17T11:10:39.825Z,135
2019-03-17T11:11:39.835Z,135
2019-03-17T11:12:39.830Z,135
2019-03-17T11:13:39.799Z,135
2019-03-17T11:14:39.797Z,140
2019-03-17T11:15:39.535Z,140
2019-03-17T11:16:39.768Z,145
2019-03-17T11:17:39.764Z,160
2019-03-17T11:18:39.756Z,165
2019-03-17T11:19:39.518Z,155
2019-03-17T11:20:39.596Z,175
2019-03-17T11:21:39.484Z,170
2019-03-17T11:22:39.720Z,165
2019-03-17T11:23:39.751Z,160
2019-03-17T11:24:39.750Z,185
2019-03-17T11:25:39.707Z,205
2019-03-17T11:26:39.699Z,285
2019-03-17T11:27:39.690Z,210
2019-03-17T11:28:39.676Z,205
2019-03-17T11:29:39.425Z,275
2019-03-17T11:30:39.661Z,230
2019-03-17T11:31:39.416Z,165
2019-03-17T11:32:39.646Z,185
2019-03-17T11:33:39.649Z,215
2019-03-17T11:34:39.625Z,260
2019-03-17T11:35:39.378Z,210
2019-03-17T11:36:39.671Z,205
2019-03-17T11:37:39.594Z,200
2019-03-17T11:38:39.593Z,175
2019-03-17T11:39:47.204Z,220
2019-03-17T11:40:39.424Z,195
2019-03-17T11:41:39.325Z,155
2019-03-17T11:42:39.560Z,180
2019-03-17T11:43:39.550Z,240
2019-03-17T11:44:39.551Z,230
2019-03-17T11:45:39.541Z,215
2019-03-17T11:46:39.530Z,250
2019-03-17T11:47:39.282Z,215
2019-03-17T11:48:39.519Z,200
2019-03-17T11:49:39.510Z,215
2019-03-17T11:50:39.273Z,170
2019-03-17T11:51:39.501Z,165
2019-03-17T11:52:39.243Z,200
2019-03-17T11:53:39.319Z,195
2019-03-17T11:54:39.247Z,220
2019-03-17T11:55:41.129Z,185
2019-03-17T11:56:39.211Z,155
2019-03-17T11:57:39.439Z,170
2019-03-17T11:58:39.438Z,185
2019-03-17T11:59:39.178Z,160
2019-03-17T12:00:39.423Z,175
2019-03-17T12:01:39.424Z,185
2019-03-17T12:02:39.410Z,180
2019-03-17T12:03:39.411Z,175
2019-03-17T12:04:39.430Z,150
2019-03-17T12:05:39.386Z,195
2019-03-17T12:06:39.130Z,295
2019-03-17T12:07:38.875Z,270
2019-03-17T12:08:38.871Z,225
2019-03-17T12:09:51.898Z,155
2019-03-17T12:10:39.411Z,140
2019-03-17T12:11:39.111Z,155
2019-03-17T12:12:39.080Z,160
2019-03-17T12:13:39.079Z,170
2019-03-17T12:14:39.318Z,200
2019-03-17T12:15:39.326Z,250
2019-03-17T12:16:39.307Z,260
2019-03-17T12:17:39.045Z,245
2019-03-17T12:18:39.280Z,235
2019-03-17T12:19:42.337Z,240
2019-03-17T12:20:39.274Z,240
2019-03-17T12:21:39.263Z,210
2019-03-17T12:22:39.258Z,210
2019-03-17T12:23:39.250Z,215
2019-03-17T12:24:39.247Z,200
2019-03-17T12:25:39.244Z,170
2019-03-17T12:26:39.014Z,235
2019-03-17T12:27:38.980Z,220
2019-03-17T12:28:39.233Z,260
2019-03-17T12:29:39.202Z,250
2019-03-17T12:30:38.971Z,205
2019-03-17T12:31:39.284Z,195
2019-03-17T12:32:38.936Z,200
2019-03-17T12:33:39.230Z,290
2019-03-17T12:34:39.190Z,320
2019-03-17T12:35:39.157Z,320
2019-03-17T12:36:38.907Z,285
2019-03-17T12:37:39.141Z,235
2019-03-17T12:38:39.141Z,310
2019-03-17T12:39:39.129Z,310
2019-03-17T12:40:39.124Z,300
2019-03-17T12:41:40.842Z,255
2019-03-17T12:42:39.100Z,215
2019-03-17T12:43:39.092Z,265
2019-03-17T12:44:38.847Z,295
2019-03-17T12:45:39.086Z,260
2019-03-17T12:46:39.075Z,325
2019-03-17T12:47:42.123Z,285
2019-03-17T12:48:38.810Z,260
2019-03-17T12:49:39.055Z,240
2019-03-17T12:50:39.059Z,300
2019-03-17T12:51:39.043Z,270
2019-03-17T12:52:39.030Z,290
2019-03-17T12:53:39.018Z,300
2019-03-17T12:54:39.017Z,215
2019-03-17T12:55:39.012Z,160
2019-03-17T12:56:38.750Z,180
2019-03-17T12:57:39.003Z,230
2019-03-17T12:58:38.986Z,275
2019-03-17T12:59:38.976Z,225
2019-03-17T13:00:38.732Z,240
2019-03-17T13:01:38.962Z,280
2019-03-17T13:02:38.958Z,250
2019-03-17T13:03:38.707Z,215
2019-03-17T13:04:38.939Z,250
2019-03-17T13:05:38.954Z,250
2019-03-17T13:06:38.580Z,260
2019-03-17T13:07:38.913Z,250
2019-03-17T13:08:38.907Z,205
2019-03-17T13:09:38.899Z,185
2019-03-17T13:10:38.896Z,210
2019-03-17T13:11:38.896Z,275
2019-03-17T13:12:38.877Z,300
2019-03-17T13:13:38.873Z,295
2019-03-17T13:14:38.858Z,330
2019-03-17T13:15:38.606Z,275
2019-03-17T13:16:38.592Z,240
2019-03-17T13:17:38.587Z,315
2019-03-17T13:18:38.824Z,295
2019-03-17T13:19:38.827Z,280
2019-03-17T13:20:39.423Z,300
2019-03-17T13:21:38.557Z,225
2019-03-17T13:22:38.796Z,220
2019-03-17T13:23:38.789Z,230
2019-03-17T13:24:38.560Z,240
2019-03-17T13:25:38.774Z,265
2019-03-17T13:26:38.591Z,260
2019-03-17T13:27:38.559Z,225
2019-03-17T13:28:38.753Z,235
2019-03-17T13:29:38.766Z,275
2019-03-17T13:30:38.829Z,260
2019-03-17T13:31:38.484Z,200
2019-03-17T13:32:38.718Z,195
2019-03-17T13:33:38.716Z,210
2019-03-17T13:34:38.700Z,195
2019-03-17T13:35:38.698Z,180
2019-03-17T13:36:38.689Z,190
2019-03-17T13:37:38.754Z,150
2019-03-17T13:38:38.675Z,150
2019-03-17T13:39:38.664Z,155
2019-03-17T13:40:39.649Z,190
2019-03-17T13:41:38.399Z,245
2019-03-17T13:42:41.035Z,225
2019-03-17T13:43:38.389Z,195
2019-03-17T13:44:38.638Z,150
2019-03-17T13:45:38.620Z,130
2019-03-17T13:46:38.613Z,170
2019-03-17T13:47:38.419Z,185
2019-03-17T13:48:38.347Z,130
2019-03-17T13:49:38.107Z,195
2019-03-17T13:50:38.588Z,255
2019-03-17T13:51:38.566Z,280
2019-03-17T13:52:38.583Z,255
2019-03-17T13:53:38.310Z,270
2019-03-17T13:54:38.547Z,255
2019-03-17T13:55:38.534Z,250
2019-03-17T13:56:38.527Z,150
2019-03-17T13:57:38.271Z,125
2019-03-17T13:58:38.511Z,180
2019-03-17T13:59:38.510Z,270
2019-03-17T14:00:38.253Z,180
2019-03-17T14:01:38.254Z,155
2019-03-17T14:02:38.479Z,195
2019-03-17T14:03:38.506Z,170
2019-03-17T14:04:38.471Z,240
2019-03-17T14:05:38.457Z,210
2019-03-17T14:06:38.447Z,195
2019-03-17T14:07:38.441Z,185
2019-03-17T14:08:38.428Z,160
2019-03-17T14:09:40.029Z,135
2019-03-17T14:10:50.077Z,145
2019-03-17T14:11:38.428Z,155
2019-03-17T14:12:38.397Z,140
2019-03-17T14:13:38.143Z,205